Time;durP1;ratioP1;P1;durP2;ratioP2;P2;SDS_P1;SDS_P2;PMS_P1;PMS_P2;Temp;Humidity;BMP_temperature;BMP_pressure;BME280_temperature;BME280_humidity;BME280_pressure;Samples;Min_cycle;Max_cycle;Signal;HPM_P1;HPM_P2
2021/12/27 00:01:01;;;;;;;;;4.00;3.25;;;;;11.79;73.39;99638.25;5042483;28;45234;-48
2021/12/27 00:03:26;;;;;;;;;5.00;5.00;;;;;11.79;73.39;99637.41;5042711;28;45308;-48
2021/12/27 00:05:52;;;;;;;;;6.50;6.50;;;;;11.80;73.74;99636.50;5042239;28;45417;-47
2021/12/27 00:08:18;;;;;;;;;6.50;4.75;;;;;11.82;73.56;99634.66;5042675;28;47485;-48
2021/12/27 00:10:43;;;;;;;;;6.25;5.00;;;;;11.83;73.58;99637.22;5042325;28;45247;-51
2021/12/27 00:13:09;;;;;;;;;4.25;4.00;;;;;11.84;73.36;99633.69;5042744;28;45325;-47
2021/12/27 00:15:36;;;;;;;;;4.75;4.00;;;;;11.80;73.88;99623.34;5042357;28;45534;-49
2021/12/27 00:18:02;;;;;;;;;8.00;5.00;;;;;11.83;73.54;99613.53;5042273;28;47123;-45
2021/12/27 00:20:27;;;;;;;;;7.75;5.00;;;;;11.84;73.38;99612.63;5041870;28;45242;-50
2021/12/27 00:22:53;;;;;;;;;6.50;3.50;;;;;11.87;73.34;99616.91;5042629;28;45218;-48
2021/12/27 00:25:19;;;;;;;;;5.75;4.75;;;;;11.85;73.55;99614.34;5042230;28;45377;-47
2021/12/27 00:27:46;;;;;;;;;7.00;3.75;;;;;11.87;73.29;99617.78;5042152;28;46361;-51
2021/12/27 00:30:12;;;;;;;;;5.75;5.00;;;;;11.87;73.70;99609.88;5042419;28;45278;-51
2021/12/27 00:32:40;;;;;;;;;5.50;4.00;;;;;11.85;73.41;99614.34;5062493;28;45309;-47
2021/12/27 00:35:07;;;;;;;;;6.25;4.00;;;;;11.87;73.57;99607.25;5043761;28;45411;-51
2021/12/27 00:37:33;;;;;;;;;7.00;6.25;;;;;11.84;73.81;99598.59;5043933;28;46127;-50
2021/12/27 00:39:58;;;;;;;;;5.00;4.00;;;;;11.85;73.54;99601.19;5061742;28;45186;-50
2021/12/27 00:42:24;;;;;;;;;6.75;4.75;;;;;11.86;73.40;99600.25;5062468;28;45285;-51
2021/12/27 00:44:49;;;;;;;;;5.00;5.00;;;;;11.86;73.84;99596.75;5061922;28;45550;-50
2021/12/27 00:47:15;;;;;;;;;5.25;4.00;;;;;11.87;73.79;99595.84;5062268;28;45357;-50
2021/12/27 00:49:41;;;;;;;;;3.00;2.00;;;;;11.89;73.52;99595.81;5061839;28;45341;-49
2021/12/27 00:52:07;;;;;;;;;5.00;4.00;;;;;11.86;73.77;99592.38;5044367;28;45440;-47
2021/12/27 00:54:32;;;;;;;;;3.00;3.00;;;;;11.90;73.69;99597.50;5047496;28;45443;-50
2021/12/27 00:56:58;;;;;;;;;5.00;3.50;;;;;11.90;73.76;99597.50;5041944;28;45292;-50
2021/12/27 00:59:23;;;;;;;;;3.00;3.00;;;;;11.82;73.74;99587.28;5041649;28;45309;-49
2021/12/27 01:01:49;;;;;;;;;4.50;2.75;;;;;11.85;73.82;99597.69;5041809;28;45415;-51
2021/12/27 01:04:14;;;;;;;;;7.50;5.00;;;;;11.83;73.88;99600.38;5041162;28;45308;-50
2021/12/27 01:06:39;;;;;;;;;6.50;4.00;;;;;11.85;74.05;99598.53;5041849;28;45181;-50
2021/12/27 01:09:05;;;;;;;;;5.50;3.00;;;;;11.87;73.72;99596.72;5041509;28;45273;-48
2021/12/27 01:14:27;;;;;;;;;2.75;2.75;;;;;11.81;73.69;99575.03;5041522;28;45285;-50
2021/12/27 01:16:52;;;;;;;;;7.25;5.25;;;;;11.89;73.99;99588.75;5023370;28;47115;-51
2021/12/27 01:19:18;;;;;;;;;5.25;3.25;;;;;11.88;73.81;99581.78;5041071;28;45245;-50
2021/12/27 01:21:44;;;;;;;;;5.00;4.25;;;;;11.88;73.92;99571.25;5023595;28;45333;-50
2021/12/27 01:24:09;;;;;;;;;6.00;6.00;;;;;11.90;73.68;99573.81;5041068;28;45459;-47
2021/12/27 01:26:35;;;;;;;;;5.00;4.00;;;;;11.91;73.70;99575.53;5041177;28;46162;-50
2021/12/27 01:29:01;;;;;;;;;5.00;3.00;;;;;11.92;73.51;99572.00;5041155;28;45313;-49
2021/12/27 01:31:28;;;;;;;;;3.75;2.50;;;;;11.93;73.72;99564.03;5052162;28;45446;-49
2021/12/27 01:33:53;;;;;;;;;4.25;4.25;;;;;11.94;73.76;99557.84;5060823;28;45356;-48
2021/12/27 01:36:20;;;;;;;;;6.25;4.00;;;;;11.93;73.78;99561.41;5043042;28;46887;-49
2021/12/27 01:38:48;;;;;;;;;5.75;4.75;;;;;11.93;73.70;99561.41;5023061;28;45312;-48
2021/12/27 01:41:16;;;;;;;;;3.25;3.25;;;;;11.96;73.73;99558.69;5041113;28;45334;-50
2021/12/27 01:43:42;;;;;;;;;4.50;3.00;;;;;11.96;73.85;99553.44;5040910;28;45312;-50
2021/12/27 01:46:14;;;;;;;;;7.75;4.75;;;;;11.97;73.57;99555.13;5040878;28;46077;-50
2021/12/27 01:48:44;;;;;;;;;1.75;1.00;;;;;11.94;73.85;99555.22;5041726;28;45365;-48
2021/12/27 01:51:11;;;;;;;;;5.00;4.00;;;;;11.93;73.60;99545.59;5048219;28;45324;-50
2021/12/27 01:53:38;;;;;;;;;6.50;3.75;;;;;11.94;73.91;99544.69;5040641;28;45483;-47
2021/12/27 01:56:06;;;;;;;;;4.00;4.00;;;;;11.95;73.87;99549.03;5040609;28;46157;-50
2021/12/27 01:58:32;;;;;;;;;3.50;3.50;;;;;11.96;73.99;99548.16;5040983;28;46621;-53
2021/12/27 02:01:00;;;;;;;;;5.50;3.00;;;;;11.96;73.92;99552.53;5040852;28;45304;-53
2021/12/27 02:03:27;;;;;;;;;6.00;3.50;;;;;11.93;73.82;99544.75;5040537;28;45548;-53
2021/12/27 02:05:53;;;;;;;;;6.00;5.00;;;;;11.94;73.85;99547.31;5040468;28;46099;-48
2021/12/27 02:08:19;;;;;;;;;4.50;4.50;;;;;11.95;73.78;99546.41;5040699;28;45266;-49
2021/12/27 02:10:44;;;;;;;;;7.00;5.50;;;;;11.97;73.96;99547.22;5040774;28;45312;-51
2021/12/27 02:13:11;;;;;;;;;8.50;4.50;;;;;11.95;74.09;99545.53;5040085;28;45364;-51
2021/12/27 02:15:36;;;;;;;;;5.25;5.25;;;;;11.96;73.96;99532.38;5022407;28;47278;-49
2021/12/27 02:18:03;;;;;;;;;6.00;4.25;;;;;11.97;73.93;99541.09;5040533;28;45476;-48
2021/12/27 02:20:32;;;;;;;;;7.00;5.50;;;;;11.95;73.69;99538.50;5040318;28;45329;-50
2021/12/27 02:23:02;;;;;;;;;3.25;3.25;;;;;11.93;74.08;99532.44;5022515;28;45583;-49
2021/12/27 02:25:29;;;;;;;;;7.25;5.25;;;;;11.91;74.32;99541.31;5022157;28;47121;-50
2021/12/27 02:27:55;;;;;;;;;3.00;3.00;;;;;11.90;73.87;99532.56;5040546;28;45297;-53
2021/12/27 02:30:22;;;;;;;;;7.75;4.75;;;;;11.91;74.07;99534.28;5024108;28;45451;-50
2021/12/27 02:32:49;;;;;;;;;5.00;3.25;;;;;11.89;74.29;99524.75;5060489;28;45305;-53
2021/12/27 02:35:18;;;;;;;;;3.50;3.00;;;;;11.89;73.99;99512.41;5059763;28;46159;-50
2021/12/27 02:37:43;;;;;;;;;8.00;4.00;;;;;11.92;74.18;99514.91;5050858;28;45628;-53
2021/12/27 02:40:10;;;;;;;;;5.50;3.00;;;;;11.88;74.27;99515.97;5022186;28;45488;-52
2021/12/27 02:42:50;;;;;;;;;4.50;3.25;;;;;11.81;74.08;99509.22;5040215;28;45500;-49
2021/12/27 02:45:16;;;;;;;;;6.00;4.50;;;;;11.89;73.87;99524.75;5039903;28;46298;-51
2021/12/27 02:47:41;;;;;;;;;3.00;3.00;;;;;11.91;74.19;99515.00;5040151;28;45282;-52
2021/12/27 02:50:07;;;;;;;;;4.75;4.75;;;;;11.90;73.97;99514.13;5039896;28;45378;-50
2021/12/27 02:52:32;;;;;;;;;9.75;4.00;;;;;11.85;74.07;99511.69;5040241;28;45309;-48
2021/12/27 02:54:57;;;;;;;;;5.00;2.75;;;;;11.84;74.15;99517.00;5039589;28;46026;-48
2021/12/27 02:57:23;;;;;;;;;6.00;5.00;;;;;11.87;73.86;99501.97;5039952;28;45365;-50
2021/12/27 02:59:48;;;;;;;;;5.75;4.00;;;;;11.86;74.00;99494.09;5039841;28;45261;-51
2021/12/27 03:02:13;;;;;;;;;4.25;4.25;;;;;11.86;74.10;99494.97;5021994;28;45324;-51
2021/12/27 03:04:39;;;;;;;;;4.00;4.00;;;;;11.89;73.74;99496.63;5039351;28;47189;-49
2021/12/27 03:07:04;;;;;;;;;4.75;3.00;;;;;11.83;74.25;99494.22;5039941;28;45238;-51
2021/12/27 03:09:30;;;;;;;;;3.25;3.25;;;;;11.85;74.17;99495.88;5039744;28;45383;-48
2021/12/27 03:11:55;;;;;;;;;4.25;3.25;;;;;11.83;74.06;99495.06;5039960;28;45147;-52
2021/12/27 03:14:23;;;;;;;;;3.00;3.00;;;;;11.86;73.81;99487.06;5039636;28;45266;-50
2021/12/27 03:16:48;;;;;;;;;3.50;3.00;;;;;11.89;74.09;99493.16;5039780;28;45289;-52
2021/12/27 03:19:13;;;;;;;;;3.00;2.00;;;;;11.86;73.64;99492.34;5039484;28;45294;-53
2021/12/27 03:21:39;;;;;;;;;3.50;3.25;;;;;11.92;73.76;99490.38;5039657;28;45221;-52
2021/12/27 03:24:05;;;;;;;;;5.50;5.00;;;;;11.93;73.88;99486.84;5021471;28;47080;-51
2021/12/27 03:26:30;;;;;;;;;4.25;3.50;;;;;11.87;73.86;99483.53;5023582;28;45616;-51
2021/12/27 03:28:55;;;;;;;;;4.25;3.75;;;;;11.87;73.97;99483.53;5043166;28;45293;-49
2021/12/27 03:31:21;;;;;;;;;5.75;2.00;;;;;11.89;73.92;99483.47;5053210;28;45313;-52
2021/12/27 03:33:46;;;;;;;;;4.75;4.00;;;;;11.91;73.92;99484.28;5062737;28;45302;-52
2021/12/27 03:36:12;;;;;;;;;7.75;4.25;;;;;11.89;74.05;99483.47;5063196;28;45380;-52
2021/12/27 03:38:41;;;;;;;;;6.50;2.50;;;;;11.89;73.75;99477.34;5046221;28;45444;-51
2021/12/27 03:41:14;;;;;;;;;5.50;4.00;;;;;11.89;73.71;99478.19;5043033;28;45407;-53
2021/12/27 03:43:40;;;;;;;;;5.00;4.75;;;;;11.89;73.69;99472.09;5042627;28;45325;-51
2021/12/27 03:46:05;;;;;;;;;4.00;3.75;;;;;11.90;73.85;99465.88;5025127;28;45266;-49
2021/12/27 03:48:31;;;;;;;;;5.00;4.00;;;;;11.91;73.65;99465.84;5024619;28;45250;-50
2021/12/27 03:50:57;;;;;;;;;4.50;4.50;;;;;11.94;73.70;99456.97;5024931;28;45243;-50
2021/12/27 03:53:22;;;;;;;;;5.50;5.25;;;;;11.93;73.75;99455.25;5042559;28;46541;-52
2021/12/27 03:55:48;;;;;;;;;3.50;3.00;;;;;11.92;74.00;99445.63;5042624;28;45246;-50
2021/12/27 03:58:25;;;;;;;;;5.00;5.00;;;;;11.93;73.72;99456.09;5026399;28;45726;-50
2021/12/27 04:03:21;;;;;;;;;6.25;4.50;;;;;11.96;73.73;99448.13;5042073;28;46144;-53
2021/12/27 04:05:47;;;;;;;;;4.00;4.00;;;;;11.96;73.72;99445.50;5042340;28;45168;-52
2021/12/27 04:08:13;;;;;;;;;5.00;3.75;;;;;11.98;73.63;99437.50;5042675;28;45260;-50
2021/12/27 04:10:41;;;;;;;;;7.50;4.50;;;;;11.98;73.64;99433.09;5024401;28;45575;-50
2021/12/27 04:13:09;;;;;;;;;7.25;5.00;;;;;11.99;73.67;99442.72;5042274;28;46222;-52
2021/12/27 04:15:34;;;;;;;;;4.50;4.50;;;;;11.94;73.76;99426.22;5042209;28;45309;-50
2021/12/27 04:18:01;;;;;;;;;4.75;4.25;;;;;11.97;73.29;99439.28;5042478;28;45447;-52
2021/12/27 04:20:27;;;;;;;;;6.00;4.00;;;;;11.96;73.67;99431.44;5042153;28;45444;-54
2021/12/27 04:22:52;;;;;;;;;3.00;3.00;;;;;11.95;73.80;99435.84;5042297;28;46095;-50
2021/12/27 04:25:20;;;;;;;;;6.75;4.00;;;;;11.97;73.49;99435.78;5042116;28;45293;-50
2021/12/27 04:27:46;;;;;;;;;4.75;4.00;;;;;11.96;73.81;99436.72;5042464;28;45376;-51
2021/12/27 04:30:12;;;;;;;;;7.75;5.75;;;;;11.95;73.64;99425.31;5042386;28;45380;-49
2021/12/27 04:32:37;;;;;;;;;5.75;4.00;;;;;11.96;73.45;99424.44;5062250;28;47143;-50
2021/12/27 04:35:03;;;;;;;;;5.75;5.00;;;;;11.96;73.66;99431.44;5061999;28;45355;-50
2021/12/27 04:37:29;;;;;;;;;7.25;5.00;;;;;11.95;73.52;99434.97;5043986;28;45344;-48
2021/12/27 04:39:56;;;;;;;;;5.00;2.00;;;;;11.93;73.65;99432.41;5061846;28;45547;-49
2021/12/27 04:42:22;;;;;;;;;6.00;4.00;;;;;11.92;73.84;99441.22;5044102;28;47366;-49
2021/12/27 04:44:47;;;;;;;;;6.75;5.50;;;;;11.95;73.67;99443.72;5061960;28;45213;-47
2021/12/27 04:47:16;;;;;;;;;8.75;6.50;;;;;11.96;73.33;99439.34;5062272;28;45586;-50
2021/12/27 04:49:42;;;;;;;;;6.25;5.25;;;;;11.93;73.72;99432.41;5061634;28;45459;-51
2021/12/27 04:52:07;;;;;;;;;7.50;5.00;;;;;11.92;73.45;99438.56;5044099;28;46218;-51
2021/12/27 04:54:33;;;;;;;;;8.25;4.75;;;;;11.91;73.58;99444.78;5061574;28;45354;-50
2021/12/27 04:56:58;;;;;;;;;7.50;4.75;;;;;11.92;73.64;99443.84;5062232;28;45380;-48
2021/12/27 04:59:23;;;;;;;;;12.00;9.50;;;;;11.91;73.67;99443.91;5061713;28;45707;-47
2021/12/27 05:01:49;;;;;;;;;6.00;5.25;;;;;11.93;73.36;99450.81;5061852;28;45974;-47
2021/12/27 05:04:14;;;;;;;;;6.25;6.00;;;;;11.87;73.58;99446.69;5043455;28;45333;-49
2021/12/27 05:06:39;;;;;;;;;11.00;6.75;;;;;11.91;73.75;99454.44;5043942;28;45346;-50
2021/12/27 05:09:05;;;;;;;;;6.00;5.00;;;;;11.92;73.26;99459.63;5061568;28;45203;-50
2021/12/27 05:11:31;;;;;;;;;6.50;6.50;;;;;11.90;73.55;99461.50;5043464;28;45179;-47
2021/12/27 05:13:57;;;;;;;;;5.25;4.25;;;;;11.92;73.30;99457.00;5061414;28;45175;-50
2021/12/27 05:16:22;;;;;;;;;7.25;6.00;;;;;11.92;73.29;99464.91;5061700;28;45435;-46
2021/12/27 05:18:48;;;;;;;;;8.25;4.75;;;;;11.91;73.48;99468.47;5061378;28;45166;-50
2021/12/27 05:21:13;;;;;;;;;6.75;5.00;;;;;11.90;73.59;99468.50;5061324;28;45933;-49
2021/12/27 05:23:38;;;;;;;;;7.50;6.00;;;;;11.89;73.51;99467.66;5061433;28;45276;-51
2021/12/27 05:26:04;;;;;;;;;6.00;5.00;;;;;11.91;73.48;99462.34;5061482;28;45226;-48
2021/12/27 05:28:29;;;;;;;;;6.50;5.50;;;;;11.92;73.45;99457.00;5061277;28;45254;-46
2021/12/27 05:30:55;;;;;;;;;9.25;7.00;;;;;11.91;73.74;99460.59;5043013;28;46066;-50
2021/12/27 05:33:20;;;;;;;;;7.75;5.75;;;;;11.91;73.62;99459.69;5061120;28;45395;-48
2021/12/27 05:35:46;;;;;;;;;8.00;7.25;;;;;11.92;73.57;99450.91;5043186;28;45249;-46
2021/12/27 05:38:12;;;;;;;;;7.00;5.50;;;;;11.91;73.30;99452.69;5047944;28;45348;-45
2021/12/27 05:40:38;;;;;;;;;14.75;12.00;;;;;11.92;73.35;99441.22;5047354;28;46806;-46
2021/12/27 05:43:04;;;;;;;;;9.00;7.75;;;;;11.89;73.29;99436.09;5030071;28;45271;-47
2021/12/27 05:45:29;;;;;;;;;7.25;5.00;;;;;11.90;73.22;99443.06;5060820;28;45537;-47
2021/12/27 05:47:55;;;;;;;;;8.00;6.50;;;;;11.90;73.25;99436.91;5060769;28;45388;-47
2021/12/27 05:50:21;;;;;;;;;7.75;6.50;;;;;11.89;73.53;99424.72;5042125;28;47468;-47
2021/12/27 05:52:46;;;;;;;;;5.50;4.00;;;;;11.91;73.28;99423.72;5061227;28;45395;-50
2021/12/27 05:55:12;;;;;;;;;5.75;5.75;;;;;11.90;73.34;99411.47;5042769;28;45387;-48
2021/12/27 05:57:38;;;;;;;;;6.00;6.00;;;;;11.91;73.18;99399.16;5048322;28;45308;-50
2021/12/27 06:00:08;;;;;;;;;6.00;6.00;;;;;11.91;73.25;99394.78;5040645;28;45231;-49
2021/12/27 06:02:33;;;;;;;;;7.75;6.75;;;;;11.89;73.39;99387.84;5040736;28;45319;-51
2021/12/27 06:04:59;;;;;;;;;7.50;6.00;;;;;11.87;73.10;99374.72;5040481;28;45318;-51
2021/12/27 06:07:24;;;;;;;;;8.25;6.75;;;;;11.87;73.39;99369.47;5040734;28;45474;-50
2021/12/27 06:09:50;;;;;;;;;10.75;6.50;;;;;11.85;73.20;99360.81;5040423;28;45399;-49
2021/12/27 06:12:15;;;;;;;;;6.00;5.50;;;;;11.84;73.08;99345.91;5040625;28;45291;-46
2021/12/27 06:14:40;;;;;;;;;7.75;6.00;;;;;11.83;73.34;99352.94;5022763;28;45268;-47
2021/12/27 06:17:06;;;;;;;;;8.50;6.75;;;;;11.82;73.12;99335.47;5040623;28;45254;-46
2021/12/27 06:19:32;;;;;;;;;4.00;4.00;;;;;11.82;73.07;99329.31;5040063;28;45224;-47
2021/12/27 06:21:58;;;;;;;;;9.75;8.00;;;;;11.82;73.32;99316.16;5022772;28;45266;-49
2021/12/27 06:24:23;;;;;;;;;7.50;6.50;;;;;11.81;72.92;99290.75;5022601;28;45355;-48
2021/12/27 06:26:49;;;;;;;;;8.50;7.25;;;;;11.80;72.82;99299.59;5022629;28;45215;-49
2021/12/27 06:29:14;;;;;;;;;8.00;8.00;;;;;11.80;73.02;99294.34;5022546;28;46148;-51
2021/12/27 06:31:40;;;;;;;;;8.00;7.50;;;;;11.69;72.94;99269.31;5034969;28;46038;-51
2021/12/27 06:34:06;;;;;;;;;10.75;8.25;;;;;11.76;73.01;99277.81;5060098;28;45372;-52
2021/12/27 06:36:32;;;;;;;;;8.25;7.50;;;;;11.76;72.94;99276.94;5060482;28;45302;-50
2021/12/27 06:38:58;;;;;;;;;6.75;6.50;;;;;11.73;73.02;99266.56;5040545;28;47189;-50
2021/12/27 06:41:24;;;;;;;;;7.00;6.75;;;;;11.69;72.99;99250.03;5040025;28;45705;-51
2021/12/27 06:43:53;;;;;;;;;9.50;7.75;;;;;11.65;73.01;99243.22;5040066;28;45253;-49
2021/12/27 06:46:19;;;;;;;;;7.75;7.75;;;;;11.65;72.95;99233.53;5040017;28;45249;-49
2021/12/27 06:48:45;;;;;;;;;11.25;7.00;;;;;11.63;73.11;99240.63;5021800;28;47228;-50
2021/12/27 06:51:10;;;;;;;;;7.75;7.50;;;;;11.62;73.00;99225.78;5039909;28;45289;-49
2021/12/27 06:53:36;;;;;;;;;8.25;6.75;;;;;11.59;72.92;99225.88;5040034;28;45329;-49
2021/12/27 06:56:02;;;;;;;;;5.75;5.00;;;;;11.55;73.12;99222.53;5039813;28;45511;-48
2021/12/27 06:58:28;;;;;;;;;7.00;6.25;;;;;11.53;73.11;99226.16;5021975;28;46257;-48
2021/12/27 07:00:53;;;;;;;;;6.50;6.00;;;;;11.52;72.88;99235.81;5039703;28;45483;-50
2021/12/27 07:03:19;;;;;;;;;9.75;8.00;;;;;11.50;73.01;99237.66;5039690;28;45412;-50
2021/12/27 07:05:45;;;;;;;;;9.50;7.50;;;;;11.53;72.84;99253.31;5039643;28;45308;-51
2021/12/27 07:08:10;;;;;;;;;10.00;7.00;;;;;11.51;72.76;99246.41;5039721;28;45342;-48
2021/12/27 07:10:36;;;;;;;;;6.50;6.00;;;;;11.51;72.92;99249.91;5039827;28;45415;-48
2021/12/27 07:13:03;;;;;;;;;7.25;5.25;;;;;11.51;72.73;99246.41;5021943;28;45189;-51
2021/12/27 07:15:30;;;;;;;;;7.75;7.25;;;;;11.51;72.68;99246.41;5039698;28;45384;-51
2021/12/27 07:17:56;;;;;;;;;8.25;6.00;;;;;11.49;72.75;99235.09;5039304;28;46213;-49
2021/12/27 07:20:22;;;;;;;;;6.00;4.50;;;;;11.51;72.44;99239.38;5039584;28;45414;-47
2021/12/27 07:22:47;;;;;;;;;6.25;6.00;;;;;11.48;72.69;99236.00;5039770;28;45294;-49
2021/12/27 07:25:12;;;;;;;;;9.25;5.75;;;;;11.47;72.54;99240.44;5039458;28;45431;-50
2021/12/27 07:27:38;;;;;;;;;5.00;4.25;;;;;11.44;72.54;99235.28;5039511;28;46051;-52
2021/12/27 07:30:06;;;;;;;;;4.75;4.75;;;;;11.44;72.47;99237.91;5039469;28;45338;-50
2021/12/27 07:32:32;;;;;;;;;6.50;6.50;;;;;11.46;72.35;99238.72;5046055;28;45231;-50
2021/12/27 07:34:57;;;;;;;;;5.75;4.00;;;;;11.45;72.54;99239.63;5059360;28;45170;-46
2021/12/27 07:37:23;;;;;;;;;3.75;3.75;;;;;11.48;72.59;99241.28;5053041;28;45342;-50
2021/12/27 07:39:48;;;;;;;;;5.75;3.50;;;;;11.47;72.46;99243.06;5039346;28;45354;-51
2021/12/27 07:42:13;;;;;;;;;4.75;4.00;;;;;11.46;72.33;99238.72;5039452;28;45227;-49
2021/12/27 07:44:39;;;;;;;;;5.00;5.00;;;;;11.47;72.55;99250.94;5039496;28;45515;-52
2021/12/27 07:47:04;;;;;;;;;7.75;4.25;;;;;11.47;72.31;99244.81;5039283;28;45157;-51
2021/12/27 07:49:30;;;;;;;;;5.50;3.75;;;;;11.45;72.32;99258.03;5039024;28;45447;-52
2021/12/27 07:51:55;;;;;;;;;4.50;3.00;;;;;11.42;72.26;99249.41;5039316;28;45305;-51
2021/12/27 07:54:20;;;;;;;;;6.25;5.00;;;;;11.41;72.32;99245.06;5039107;28;45642;-49
2021/12/27 07:56:46;;;;;;;;;4.75;4.50;;;;;11.40;72.20;99243.38;5039143;28;46215;-52
2021/12/27 07:59:11;;;;;;;;;6.00;5.00;;;;;11.36;72.33;99237.38;5039281;28;45258;-51
2021/12/27 08:01:39;;;;;;;;;6.00;5.00;;;;;11.32;72.39;99236.66;5021484;28;45415;-50
2021/12/27 08:04:05;;;;;;;;;5.50;4.25;;;;;11.34;72.30;99232.16;5021098;28;45508;-51
2021/12/27 08:06:31;;;;;;;;;5.25;4.75;;;;;11.34;72.29;99231.31;5004474;28;46905;-51
2021/12/27 08:08:56;;;;;;;;;3.00;2.75;;;;;11.35;72.12;99231.25;5021037;28;45239;-51
2021/12/27 08:11:24;;;;;;;;;2.25;2.25;;;;;11.36;72.06;99232.97;5021413;28;45178;-48
2021/12/27 08:13:50;;;;;;;;;4.25;4.25;;;;;11.35;71.93;99225.16;5024732;28;45740;-47
2021/12/27 08:16:17;;;;;;;;;3.50;3.50;;;;;11.36;72.12;99235.59;5042062;28;45325;-50
2021/12/27 08:18:42;;;;;;;;;5.00;3.75;;;;;11.32;72.28;99233.16;5042254;28;45411;-47
2021/12/27 08:21:08;;;;;;;;;2.50;2.50;;;;;11.28;72.30;99226.31;5042333;28;45450;-51
2021/12/27 08:23:33;;;;;;;;;3.50;3.50;;;;;11.30;72.33;99227.97;5042489;28;45352;-50
2021/12/27 08:25:59;;;;;;;;;5.00;4.00;;;;;11.31;72.08;99226.22;5048128;28;45363;-46
2021/12/27 08:28:25;;;;;;;;;5.25;3.25;;;;;11.27;72.11;99222.84;5049636;28;45352;-49
2021/12/27 08:30:50;;;;;;;;;6.75;5.00;;;;;11.28;72.08;99219.31;5048003;28;45213;-46
2021/12/27 08:33:15;;;;;;;;;4.00;4.00;;;;;11.29;71.92;99213.09;5044119;28;45520;-52
2021/12/27 08:35:42;;;;;;;;;7.25;5.25;;;;;11.31;72.11;99220.94;5061955;28;45546;-50
2021/12/27 08:38:07;;;;;;;;;4.00;2.25;;;;;11.28;72.05;99210.53;5050063;28;45238;-52
2021/12/27 08:40:32;;;;;;;;;4.75;3.50;;;;;11.29;71.83;99209.63;5041876;28;45524;-50
2021/12/27 08:42:58;;;;;;;;;2.75;2.00;;;;;11.24;72.00;99207.19;5042261;28;45154;-50
2021/12/27 08:45:24;;;;;;;;;5.50;3.25;;;;;11.28;72.14;99213.16;5057825;28;45509;-49
2021/12/27 08:47:49;;;;;;;;;4.50;4.00;;;;;11.25;71.90;99211.53;5032155;28;45295;-53
2021/12/27 08:50:17;;;;;;;;;3.50;3.50;;;;;11.27;71.98;99214.09;5041853;28;45831;-51
2021/12/27 08:52:43;;;;;;;;;4.25;4.00;;;;;11.26;72.06;99207.97;5042108;28;45309;-51
2021/12/27 08:55:10;;;;;;;;;7.25;6.00;;;;;11.27;72.04;99211.44;5023428;28;47148;-51
2021/12/27 08:57:35;;;;;;;;;3.75;3.75;;;;;11.25;72.00;99208.06;5042042;28;45269;-52
2021/12/27 09:00:03;;;;;;;;;5.50;4.25;;;;;11.28;71.90;99207.91;5041625;28;45310;-48
2021/12/27 09:02:29;;;;;;;;;4.00;4.00;;;;;11.27;71.67;99200.94;5041862;28;45221;-51
2021/12/27 09:04:55;;;;;;;;;3.50;3.50;;;;;11.27;71.97;99196.53;5023223;28;46946;-47
2021/12/27 09:07:20;;;;;;;;;3.75;3.50;;;;;11.24;72.09;99194.03;5023662;28;45309;-47
2021/12/27 09:09:45;;;;;;;;;6.00;6.00;;;;;11.26;71.95;99199.22;5041515;28;45380;-51
2021/12/27 09:12:11;;;;;;;;;5.00;3.25;;;;;11.23;72.01;99189.69;5041541;28;45293;-48
2021/12/27 09:14:37;;;;;;;;;4.00;4.00;;;;;11.26;71.94;99196.59;5041287;28;46346;-51
2021/12/27 09:17:02;;;;;;;;;5.50;5.50;;;;;11.25;71.93;99195.75;5041617;28;45274;-51
2021/12/27 09:19:28;;;;;;;;;3.50;3.00;;;;;11.27;71.98;99198.31;5041123;28;45309;-50
2021/12/27 09:21:53;;;;;;;;;0.00;0.00;;;;;11.24;71.96;99194.03;5041610;28;45327;-51
2021/12/27 09:24:19;;;;;;;;;6.00;4.00;;;;;11.25;72.02;99192.28;5041124;28;46265;-51
2021/12/27 09:26:44;;;;;;;;;5.75;4.75;;;;;11.26;72.16;99193.97;5041597;28;45389;-46
2021/12/27 09:29:10;;;;;;;;;8.25;5.50;;;;;11.27;71.86;99199.19;5041491;28;45824;-48
2021/12/27 09:31:35;;;;;;;;;5.50;4.50;;;;;11.25;72.26;99195.75;5035342;28;45328;-51
2021/12/27 09:34:01;;;;;;;;;6.75;4.50;;;;;11.23;72.25;99187.06;5061012;28;45390;-50
2021/12/27 09:36:27;;;;;;;;;5.50;4.75;;;;;11.23;72.21;99187.06;5061254;28;45213;-47
2021/12/27 09:38:52;;;;;;;;;6.00;4.50;;;;;11.23;72.14;99181.78;5042333;28;45167;-49
2021/12/27 09:41:19;;;;;;;;;4.00;4.00;;;;;11.22;72.18;99178.31;5023198;28;45495;-48
2021/12/27 09:43:45;;;;;;;;;6.00;4.25;;;;;11.19;72.38;99181.09;5006740;28;47136;-48
2021/12/27 09:46:11;;;;;;;;;5.50;4.00;;;;;11.19;72.39;99182.84;5040942;28;45359;-49
2021/12/27 09:48:37;;;;;;;;;4.00;4.00;;;;;11.21;72.31;99181.03;5040840;28;45313;-49
2021/12/27 09:51:05;;;;;;;;;6.00;3.50;;;;;11.18;72.50;99183.75;5040931;28;45464;-48
2021/12/27 09:53:30;;;;;;;;;4.75;4.00;;;;;11.21;72.38;99176.59;5040690;28;45550;-52
2021/12/27 09:55:55;;;;;;;;;6.50;3.75;;;;;11.24;72.30;99161.63;5040785;28;45244;-47
2021/12/27 09:58:21;;;;;;;;;3.50;2.25;;;;;11.23;72.26;99166.03;5022938;28;45259;-52
2021/12/27 10:00:47;;;;;;;;;5.00;3.00;;;;;11.20;72.41;99171.41;5022858;28;45393;-55
2021/12/27 10:03:12;;;;;;;;;3.00;3.00;;;;;11.24;72.31;99178.25;5040385;28;45545;-49
2021/12/27 10:05:38;;;;;;;;;6.00;4.00;;;;;11.22;72.44;99164.34;5045015;28;45326;-48
2021/12/27 10:08:04;;;;;;;;;4.75;4.75;;;;;11.19;72.46;99174.97;5041389;28;45792;-51
2021/12/27 10:10:34;;;;;;;;;7.50;5.25;;;;;11.22;72.41;99174.84;5040624;28;45258;-50
2021/12/27 10:13:05;;;;;;;;;3.25;3.25;;;;;11.20;72.50;99174.88;5033037;28;47228;-49
2021/12/27 10:15:38;;;;;;;;;5.50;3.75;;;;;11.20;72.44;99174.88;5046256;28;45416;-51
2021/12/27 10:18:14;;;;;;;;;3.75;3.25;;;;;11.21;72.36;99170.50;5040338;28;45257;-48
2021/12/27 10:20:41;;;;;;;;;6.00;2.75;;;;;11.18;72.46;99170.63;5040406;28;45641;-47
2021/12/27 10:23:09;;;;;;;;;3.75;3.00;;;;;11.17;72.41;99168.91;5040436;28;46181;-48
2021/12/27 10:25:35;;;;;;;;;3.75;2.75;;;;;11.11;72.46;99166.56;5022055;28;45313;-51
2021/12/27 10:28:01;;;;;;;;;5.50;4.00;;;;;11.15;72.46;99155.00;5022516;28;45318;-50
2021/12/27 10:30:30;;;;;;;;;5.00;3.25;;;;;11.14;72.73;99158.53;5042607;28;45621;-49
2021/12/27 10:33:05;;;;;;;;;2.00;2.00;;;;;11.09;72.81;99171.00;5060203;28;45387;-50
2021/12/27 10:35:40;;;;;;;;;5.00;4.00;;;;;11.04;72.87;99163.31;5059503;28;45425;-48
2021/12/27 10:38:27;;;;;;;;;1.50;1.00;;;;;11.02;72.77;99171.25;5052512;28;45462;-51
2021/12/27 10:40:59;;;;;;;;;2.00;2.00;;;;;10.98;72.98;99169.69;5041947;28;45598;-52
2021/12/27 10:43:50;;;;;;;;;4.25;3.00;;;;;10.96;72.90;99155.75;5060147;28;45331;-51
2021/12/27 10:46:20;;;;;;;;;3.00;3.00;;;;;10.94;73.08;99148.84;5060049;28;45252;-48
2021/12/27 10:48:55;;;;;;;;;2.50;2.25;;;;;10.88;73.24;99155.22;5059948;28;45451;-50
2021/12/27 10:51:21;;;;;;;;;2.00;2.00;;;;;10.88;73.06;99156.06;5059891;28;45455;-47
2021/12/27 10:53:46;;;;;;;;;2.75;2.00;;;;;10.87;73.22;99156.13;5041736;28;47451;-47
2021/12/27 10:56:12;;;;;;;;;4.75;4.25;;;;;10.87;73.14;99166.63;5059876;28;45269;-48
2021/12/27 10:58:44;;;;;;;;;2.00;2.00;;;;;10.84;73.28;99165.00;5060455;28;45312;-51
2021/12/27 11:01:17;;;;;;;;;4.00;2.00;;;;;10.89;73.09;99164.78;5059956;28;45391;-50
2021/12/27 11:03:44;;;;;;;;;2.00;1.75;;;;;10.91;73.04;99159.50;5059621;28;46070;-47
2021/12/27 11:06:12;;;;;;;;;3.75;3.00;;;;;10.86;73.12;99154.41;5059732;28;45230;-48
2021/12/27 11:08:39;;;;;;;;;4.00;4.00;;;;;10.85;73.29;99166.69;5060164;28;45382;-48
2021/12/27 11:11:06;;;;;;;;;3.00;3.00;;;;;10.87;73.25;99174.53;5059722;28;45246;-48
2021/12/27 11:13:33;;;;;;;;;4.75;3.25;;;;;10.88;73.25;99169.19;5059651;28;46224;-52
2021/12/27 11:15:58;;;;;;;;;3.50;3.00;;;;;10.88;73.28;99173.63;5059670;28;45213;-48
2021/12/27 11:18:24;;;;;;;;;3.25;3.00;;;;;10.89;73.20;99180.56;5059647;28;45476;-50
2021/12/27 11:21:09;;;;;;;;;2.50;2.50;;;;;10.91;73.44;99167.38;5059803;28;45395;-51
2021/12/27 11:23:34;;;;;;;;;4.25;4.00;;;;;10.95;73.31;99177.69;5041519;28;46260;-48
2021/12/27 11:26:04;;;;;;;;;3.75;3.75;;;;;10.92;73.52;99182.19;5059309;28;45328;-48
2021/12/27 11:28:33;;;;;;;;;6.25;4.50;;;;;10.94;73.29;99175.13;5059865;28;45333;-49
2021/12/27 11:31:04;;;;;;;;;4.25;4.25;;;;;10.89;73.63;99163.03;5052907;28;45736;-48
2021/12/27 11:33:30;;;;;;;;;3.00;2.00;;;;;10.88;73.85;99171.81;5059093;28;46132;-46
2021/12/27 11:35:56;;;;;;;;;3.75;3.00;;;;;10.92;73.73;99171.69;5059564;28;45349;-48